createdAt,value
2023-03-27T00:00:58.230Z,0.10
2023-03-27T00:01:58.083Z,0.20
2023-03-27T00:02:58.105Z,0.10
2023-03-27T00:03:58.096Z,0.20
2023-03-27T00:04:58.017Z,0.10
2023-03-27T00:05:58.005Z,0.20
2023-03-27T00:06:57.989Z,0.10
2023-03-27T00:07:57.973Z,0.20
2023-03-27T00:08:57.963Z,0.10
2023-03-27T00:09:57.949Z,0.20
2023-03-27T00:10:58.143Z,0.10
2023-03-27T00:11:57.921Z,0.20
2023-03-27T00:12:57.909Z,0.10
2023-03-27T00:13:57.893Z,0.10
2023-03-27T00:14:57.882Z,0.10
2023-03-27T00:15:57.869Z,0.10
2023-03-27T00:16:57.915Z,0.10
2023-03-27T00:17:57.865Z,0.10
2023-03-27T00:18:57.829Z,0.10
2023-03-27T00:19:57.843Z,0.10
2023-03-27T00:20:57.945Z,0.10
2023-03-27T00:21:57.789Z,0.10
2023-03-27T00:22:57.775Z,0.10
2023-03-27T00:23:57.767Z,0.10
2023-03-27T00:24:57.749Z,0.10
2023-03-27T00:26:57.724Z,0.10
2023-03-27T00:27:57.706Z,0.10
2023-03-27T00:28:57.696Z,0.20
2023-03-27T00:29:57.686Z,0.20
2023-03-27T00:30:57.939Z,0.20
2023-03-27T00:31:57.665Z,0.10
2023-03-27T00:32:57.683Z,0.20
2023-03-27T00:33:57.636Z,0.10
2023-03-27T00:34:57.627Z,0.20
2023-03-27T00:35:57.672Z,0.10
2023-03-27T00:36:57.601Z,0.20
2023-03-27T00:37:57.587Z,0.10
2023-03-27T00:38:57.570Z,0.10
2023-03-27T00:39:57.572Z,0.10
2023-03-27T00:40:57.796Z,0.10
2023-03-27T00:41:57.539Z,0.10
2023-03-27T00:42:57.524Z,0.10
2023-03-27T00:43:57.510Z,0.20
2023-03-27T00:44:57.510Z,0.10
2023-03-27T00:45:57.514Z,0.20
2023-03-27T00:46:57.477Z,0.20
2023-03-27T00:47:57.504Z,0.20
2023-03-27T00:48:57.449Z,0.10
2023-03-27T00:49:57.434Z,0.10
2023-03-27T00:50:57.566Z,0.20
2023-03-27T00:51:57.434Z,0.10
2023-03-27T00:52:57.402Z,0.20
2023-03-27T00:53:57.385Z,0.20
2023-03-27T00:54:57.374Z,0.10
2023-03-27T00:55:57.360Z,0.20
2023-03-27T00:56:57.380Z,0.20
2023-03-27T00:57:57.337Z,0.20
2023-03-27T00:58:57.320Z,0.20
2023-03-27T00:59:57.308Z,0.20
2023-03-27T01:00:57.551Z,0.10
2023-03-27T01:01:57.334Z,0.20
2023-03-27T01:02:57.407Z,0.20
2023-03-27T01:03:57.286Z,0.20
2023-03-27T01:04:57.250Z,0.10
2023-03-27T01:05:57.236Z,0.20
2023-03-27T01:06:57.217Z,0.20
2023-03-27T01:08:00.437Z,0.10
2023-03-27T01:08:57.190Z,0.20
2023-03-27T01:09:57.177Z,0.10
2023-03-27T01:10:57.412Z,0.20
2023-03-27T01:11:57.154Z,0.20
2023-03-27T01:12:57.139Z,0.20
2023-03-27T01:13:57.135Z,0.20
2023-03-27T01:14:57.112Z,0.10
2023-03-27T01:15:57.113Z,0.20
2023-03-27T01:16:57.089Z,0.10
2023-03-27T01:17:57.104Z,0.20
2023-03-27T01:18:57.069Z,0.10
2023-03-27T01:19:57.050Z,0.20
2023-03-27T01:20:57.152Z,0.20
2023-03-27T01:21:57.024Z,0.20
2023-03-27T01:22:57.008Z,0.20
2023-03-27T01:23:59.906Z,0.20
2023-03-27T01:24:56.985Z,0.20
2023-03-27T01:25:56.975Z,0.10
2023-03-27T01:26:56.962Z,0.20
2023-03-27T01:27:56.947Z,0.20
2023-03-27T01:28:56.931Z,0.20
2023-03-27T01:29:56.918Z,0.20
2023-03-27T01:30:57.112Z,0.20
2023-03-27T01:31:56.896Z,0.20
2023-03-27T01:32:56.913Z,0.10
2023-03-27T01:33:56.882Z,0.20
2023-03-27T01:35:01.677Z,0.20
2023-03-27T01:35:56.922Z,0.20
2023-03-27T01:36:56.834Z,0.20
2023-03-27T01:37:56.819Z,0.20
2023-03-27T01:38:56.810Z,0.20
2023-03-27T01:39:56.824Z,0.10
2023-03-27T01:40:56.930Z,0.20
2023-03-27T01:41:56.773Z,0.20
2023-03-27T01:42:56.765Z,0.20
2023-03-27T01:43:56.753Z,0.20
2023-03-27T01:44:56.734Z,0.20
2023-03-27T01:45:56.716Z,0.20
2023-03-27T01:46:56.765Z,0.10
2023-03-27T01:47:56.713Z,0.20
2023-03-27T01:48:56.677Z,0.20
2023-03-27T01:49:56.669Z,0.20
2023-03-27T01:50:56.881Z,0.20
2023-03-27T01:51:56.643Z,0.20
2023-03-27T01:52:56.631Z,0.20
2023-03-27T01:53:56.617Z,0.20
2023-03-27T01:54:56.600Z,0.20
2023-03-27T01:55:56.615Z,0.10
2023-03-27T01:56:56.598Z,0.20
2023-03-27T01:57:56.566Z,0.20
2023-03-27T01:58:56.553Z,0.20
2023-03-27T01:59:56.546Z,0.20
2023-03-27T02:00:56.593Z,0.20
2023-03-27T02:01:56.515Z,0.20
2023-03-27T02:02:56.526Z,0.20
2023-03-27T02:03:56.489Z,0.20
2023-03-27T02:04:56.522Z,0.10
2023-03-27T02:05:56.468Z,0.20
2023-03-27T02:06:56.449Z,0.20
2023-03-27T02:07:56.436Z,0.20
2023-03-27T02:08:56.423Z,0.20
2023-03-27T02:09:56.411Z,0.20
2023-03-27T02:10:56.558Z,0.20
2023-03-27T02:11:56.419Z,0.20
2023-03-27T02:12:56.374Z,0.20
2023-03-27T02:13:56.363Z,0.20
2023-03-27T02:14:56.348Z,0.20
2023-03-27T02:15:56.368Z,0.20
2023-03-27T02:16:56.323Z,0.20
2023-03-27T02:17:56.350Z,0.20
2023-03-27T02:18:56.301Z,0.10
2023-03-27T02:19:56.300Z,0.20
2023-03-27T02:20:56.479Z,0.20
2023-03-27T02:21:56.262Z,0.20
2023-03-27T02:22:56.246Z,0.20
2023-03-27T02:23:56.236Z,0.20
2023-03-27T02:24:56.224Z,0.20
2023-03-27T02:25:56.209Z,0.10
2023-03-27T02:26:56.197Z,0.20
2023-03-27T02:27:56.214Z,0.20
2023-03-27T02:28:56.180Z,0.20
2023-03-27T02:29:56.164Z,0.20
2023-03-27T02:31:05.763Z,0.20
2023-03-27T02:31:56.213Z,0.10
2023-03-27T02:32:56.149Z,0.10
2023-03-27T02:33:56.120Z,0.10
2023-03-27T02:34:56.095Z,0.10
2023-03-27T02:35:56.102Z,0.20
2023-03-27T02:36:56.067Z,0.20
2023-03-27T02:37:56.061Z,0.20
2023-03-27T02:38:56.043Z,0.20
2023-03-27T02:39:56.031Z,0.20
2023-03-27T02:40:56.204Z,0.20
2023-03-27T02:41:56.007Z,0.10
2023-03-27T02:42:56.015Z,0.20
2023-03-27T02:43:56.006Z,0.10
2023-03-27T02:44:55.970Z,0.20
2023-03-27T02:45:56.014Z,0.10
2023-03-27T02:46:55.949Z,0.20
2023-03-27T02:47:55.971Z,0.10
2023-03-27T02:48:55.918Z,0.20
2023-03-27T02:49:55.912Z,0.10
2023-03-27T02:50:56.245Z,0.20
2023-03-27T02:51:55.882Z,0.20
2023-03-27T02:52:55.869Z,0.10
2023-03-27T02:53:55.864Z,0.20
2023-03-27T02:54:55.843Z,0.10
2023-03-27T02:55:55.833Z,0.10
2023-03-27T02:56:55.953Z,0.20
2023-03-27T02:57:55.808Z,0.20
2023-03-27T02:58:55.798Z,0.20
2023-03-27T02:59:55.805Z,0.20
2023-03-27T03:00:56.091Z,0.20
2023-03-27T03:01:55.804Z,0.10
2023-03-27T03:02:55.835Z,0.20
2023-03-27T03:03:55.732Z,0.10
2023-03-27T03:04:55.717Z,0.20
2023-03-27T03:05:55.711Z,0.10
2023-03-27T03:06:55.691Z,0.20
2023-03-27T03:07:55.681Z,0.10
2023-03-27T03:08:55.666Z,0.20
2023-03-27T03:09:55.670Z,0.20
2023-03-27T03:10:55.750Z,0.10
2023-03-27T03:11:55.630Z,0.20
2023-03-27T03:12:55.615Z,0.10
2023-03-27T03:13:55.610Z,0.20
2023-03-27T03:14:55.592Z,0.20
2023-03-27T03:15:55.653Z,0.20
2023-03-27T03:16:55.616Z,0.20
2023-03-27T03:17:55.582Z,0.20
2023-03-27T03:18:55.537Z,0.20
2023-03-27T03:19:55.530Z,0.10
2023-03-27T03:20:55.814Z,0.20
2023-03-27T03:21:55.504Z,0.10
2023-03-27T03:22:55.487Z,0.20
2023-03-27T03:23:58.273Z,0.10
2023-03-27T03:24:55.461Z,0.20
2023-03-27T03:25:55.450Z,0.20
2023-03-27T03:26:55.438Z,0.20
2023-03-27T03:27:55.425Z,0.20
2023-03-27T03:29:00.231Z,0.10
2023-03-27T03:29:55.400Z,0.20
2023-03-27T03:30:55.790Z,0.10
2023-03-27T03:31:55.399Z,0.20
2023-03-27T03:32:55.395Z,0.20
2023-03-27T03:33:55.363Z,0.20
2023-03-27T03:34:55.337Z,0.20
2023-03-27T03:35:55.342Z,0.20
2023-03-27T03:36:55.307Z,0.20
2023-03-27T03:37:55.301Z,0.20
2023-03-27T03:38:55.284Z,0.20
2023-03-27T03:39:55.271Z,0.10
2023-03-27T03:40:55.646Z,0.20
2023-03-27T03:41:55.255Z,0.10
2023-03-27T03:42:55.264Z,0.20
2023-03-27T03:43:55.225Z,0.20
2023-03-27T03:44:55.206Z,0.10
2023-03-27T03:45:55.204Z,0.20
2023-03-27T03:46:55.181Z,0.10
2023-03-27T03:47:55.277Z,0.20
2023-03-27T03:48:55.163Z,0.20
2023-03-27T03:49:55.144Z,0.20
2023-03-27T03:50:55.423Z,0.20
2023-03-27T03:52:03.865Z,0.10
2023-03-27T03:52:57.103Z,0.10
2023-03-27T03:53:55.093Z,0.10
2023-03-27T03:54:55.090Z,0.20
2023-03-27T03:55:55.069Z,0.20
2023-03-27T03:56:55.083Z,0.20
2023-03-27T03:57:55.042Z,0.20
2023-03-27T03:58:55.025Z,0.20
2023-03-27T03:59:55.016Z,0.20
2023-03-27T04:00:55.214Z,0.10
2023-03-27T04:01:55.006Z,0.20
2023-03-27T04:02:55.094Z,0.10
2023-03-27T04:03:55.006Z,0.20
2023-03-27T04:04:54.949Z,0.10
2023-03-27T04:05:54.937Z,0.20
2023-03-27T04:06:54.924Z,0.20
2023-03-27T04:07:54.916Z,0.10
2023-03-27T04:08:54.899Z,0.20
2023-03-27T04:09:54.886Z,0.10
2023-03-27T04:10:55.134Z,0.20
2023-03-27T04:11:54.859Z,0.20
2023-03-27T04:12:54.848Z,0.20
2023-03-27T04:13:54.836Z,0.20
2023-03-27T04:14:54.823Z,0.20
2023-03-27T04:15:54.850Z,0.20
2023-03-27T04:16:54.802Z,0.20
2023-03-27T04:17:54.886Z,0.20
2023-03-27T04:18:54.889Z,0.20
2023-03-27T04:19:54.785Z,0.10
2023-03-27T04:20:54.932Z,0.20
2023-03-27T04:21:54.746Z,0.10
2023-03-27T04:22:54.717Z,0.20
2023-03-27T04:23:54.719Z,0.20
2023-03-27T04:24:54.697Z,0.20
2023-03-27T04:25:54.710Z,0.20
2023-03-27T04:26:54.665Z,0.10
2023-03-27T04:27:54.658Z,0.20
2023-03-27T04:28:54.643Z,0.20
2023-03-27T04:29:54.635Z,0.20
2023-03-27T04:30:54.732Z,0.20
2023-03-27T04:31:54.613Z,0.10
2023-03-27T04:32:54.667Z,0.20
2023-03-27T04:33:54.595Z,0.10
2023-03-27T04:34:54.604Z,0.20
2023-03-27T04:36:06.852Z,0.20
2023-03-27T04:36:56.574Z,0.20
2023-03-27T04:37:54.536Z,0.20
2023-03-27T04:38:54.524Z,0.10
2023-03-27T04:39:54.524Z,0.20
2023-03-27T04:40:54.627Z,0.10
2023-03-27T04:41:54.498Z,0.20
2023-03-27T04:42:54.474Z,0.20
2023-03-27T04:43:54.463Z,0.20
2023-03-27T04:44:54.447Z,0.20
2023-03-27T04:45:54.437Z,0.20
2023-03-27T04:46:54.470Z,0.20
2023-03-27T04:47:54.572Z,0.20
2023-03-27T04:48:54.404Z,0.20
2023-03-27T04:49:54.390Z,0.20
2023-03-27T04:50:54.575Z,0.10
2023-03-27T04:51:54.454Z,0.20
2023-03-27T04:52:54.351Z,0.10
2023-03-27T04:53:54.338Z,0.20
2023-03-27T04:54:54.321Z,0.10
2023-03-27T04:55:54.312Z,0.20
2023-03-27T04:56:54.325Z,0.20
2023-03-27T04:57:54.287Z,0.10
2023-03-27T04:58:54.280Z,0.20
2023-03-27T04:59:54.260Z,0.20
2023-03-27T05:00:54.465Z,0.20
2023-03-27T05:01:54.235Z,0.20
2023-03-27T05:02:54.250Z,0.20
2023-03-27T05:03:54.238Z,0.20
2023-03-27T05:04:54.194Z,0.20
2023-03-27T05:05:54.185Z,0.20
2023-03-27T05:06:54.168Z,0.20
2023-03-27T05:07:54.182Z,0.30
2023-03-27T05:08:54.143Z,0.20
2023-03-27T05:09:54.136Z,0.20
2023-03-27T05:10:54.229Z,0.20
2023-03-27T05:11:54.110Z,57.70
2023-03-27T05:12:55.193Z,0.50
2023-03-27T05:13:54.079Z,0.50
2023-03-27T05:14:54.071Z,0.70
2023-03-27T05:15:54.054Z,0.60
2023-03-27T05:16:54.041Z,0.60
2023-03-27T05:17:54.067Z,0.60
2023-03-27T05:18:54.017Z,0.50
2023-03-27T05:19:54.010Z,0.60
2023-03-27T05:20:53.993Z,0.50
2023-03-27T05:21:53.981Z,1.90
2023-03-27T05:22:53.969Z,27.89
2023-03-27T05:23:53.979Z,0.50
2023-03-27T05:24:53.942Z,0.60
2023-03-27T05:25:59.341Z,0.50
2023-03-27T05:26:55.914Z,0.60
2023-03-27T05:27:53.902Z,0.60
2023-03-27T05:28:53.889Z,0.60
2023-03-27T05:29:53.875Z,0.60
2023-03-27T05:30:53.920Z,0.50
2023-03-27T05:31:53.852Z,0.60
2023-03-27T05:32:53.981Z,27.00
2023-03-27T05:33:53.826Z,73.69
2023-03-27T05:34:53.830Z,72.59
2023-03-27T05:35:53.812Z,71.40
2023-03-27T05:36:53.791Z,73.80
2023-03-27T05:37:53.774Z,72.19
2023-03-27T05:38:53.765Z,71.40
2023-03-27T05:39:53.792Z,71.09
2023-03-27T05:40:53.792Z,70.69
2023-03-27T05:41:53.725Z,69.50
2023-03-27T05:42:53.709Z,68.90
2023-03-27T05:43:53.708Z,69.59
2023-03-27T05:44:53.687Z,69.59
2023-03-27T05:45:53.720Z,70.30
2023-03-27T05:46:53.675Z,71.00
2023-03-27T05:47:53.725Z,68.50
2023-03-27T05:48:53.636Z,69.69
2023-03-27T05:49:53.623Z,68.30
2023-03-27T05:50:53.661Z,70.19
2023-03-27T05:51:53.596Z,68.30
2023-03-27T05:52:53.586Z,66.90
2023-03-27T05:53:53.572Z,66.00
2023-03-27T05:54:53.562Z,64.09
2023-03-27T05:56:02.810Z,63.09
2023-03-27T05:56:55.589Z,61.50
2023-03-27T05:57:53.528Z,60.29
2023-03-27T05:58:53.522Z,60.09
2023-03-27T05:59:53.498Z,59.00
2023-03-27T06:00:53.492Z,58.79
2023-03-27T06:01:53.473Z,57.90
2023-03-27T06:02:53.524Z,58.29
2023-03-27T06:03:53.516Z,57.00
2023-03-27T06:04:53.636Z,56.59
2023-03-27T06:05:53.420Z,55.40
2023-03-27T06:06:53.410Z,54.79
2023-03-27T06:07:53.395Z,53.50
2023-03-27T06:08:53.384Z,53.09
2023-03-27T06:09:53.370Z,52.50
2023-03-27T06:10:53.359Z,53.29
2023-03-27T06:11:53.370Z,51.79
2023-03-27T06:12:53.340Z,50.79
2023-03-27T06:13:53.319Z,49.29
2023-03-27T06:14:53.314Z,48.70
2023-03-27T06:15:53.349Z,48.00
2023-03-27T06:16:53.289Z,47.59
2023-03-27T06:17:53.292Z,46.40
2023-03-27T06:18:53.286Z,46.20
2023-03-27T06:19:53.243Z,47.29
2023-03-27T06:20:53.231Z,45.79
2023-03-27T06:21:53.233Z,47.90
2023-03-27T06:22:53.216Z,48.90
2023-03-27T06:23:53.191Z,49.90
2023-03-27T06:24:53.181Z,52.20
2023-03-27T06:25:53.197Z,54.50
2023-03-27T06:26:53.160Z,53.70
2023-03-27T06:27:53.164Z,54.20
2023-03-27T06:28:53.139Z,55.00
2023-03-27T06:29:53.123Z,55.59
2023-03-27T06:30:53.144Z,56.79
2023-03-27T06:31:53.140Z,61.00
2023-03-27T06:32:53.222Z,61.00
2023-03-27T06:33:53.066Z,61.70
2023-03-27T06:34:53.055Z,62.00
2023-03-27T06:35:53.740Z,59.59
2023-03-27T06:36:53.034Z,59.59
2023-03-27T06:37:53.030Z,59.20
2023-03-27T06:38:53.002Z,62.40
2023-03-27T06:39:53.141Z,69.59
2023-03-27T06:40:52.976Z,72.30
2023-03-27T06:41:52.960Z,75.19
2023-03-27T06:42:52.952Z,77.90
2023-03-27T06:43:53.055Z,76.80
2023-03-27T06:44:52.938Z,77.30
2023-03-27T06:45:52.937Z,81.50
2023-03-27T06:46:52.905Z,78.59
2023-03-27T06:47:54.846Z,83.59
2023-03-27T06:48:52.903Z,86.00
2023-03-27T06:49:52.857Z,82.00
2023-03-27T06:50:52.879Z,83.69
2023-03-27T06:51:52.831Z,81.40
2023-03-27T06:52:52.822Z,81.90
2023-03-27T06:53:52.811Z,78.00
2023-03-27T06:54:52.790Z,74.19
2023-03-27T06:55:52.795Z,69.09
2023-03-27T06:56:52.835Z,69.69
2023-03-27T06:57:52.758Z,59.50
2023-03-27T06:58:52.751Z,64.19
2023-03-27T06:59:52.752Z,64.90
2023-03-27T07:00:52.749Z,63.00
2023-03-27T07:01:52.825Z,59.90
2023-03-27T07:02:52.712Z,60.09
2023-03-27T07:03:52.675Z,58.40
2023-03-27T07:05:03.844Z,59.59
2023-03-27T07:05:52.675Z,56.90
2023-03-27T07:06:52.636Z,57.59
2023-03-27T07:07:52.626Z,57.20
2023-03-27T07:08:52.614Z,59.40
2023-03-27T07:09:52.594Z,61.09
2023-03-27T07:11:03.779Z,64.50
2023-03-27T07:11:54.583Z,65.59
2023-03-27T07:12:52.565Z,67.19
2023-03-27T07:13:52.547Z,65.69
2023-03-27T07:14:52.558Z,64.30
2023-03-27T07:15:52.576Z,61.00
2023-03-27T07:16:52.611Z,61.59
2023-03-27T07:17:52.522Z,57.50
2023-03-27T07:18:52.479Z,56.09
2023-03-27T07:19:52.461Z,53.50
2023-03-27T07:20:52.453Z,50.40
2023-03-27T07:21:52.433Z,47.70
2023-03-27T07:22:53.108Z,48.09
2023-03-27T07:23:52.409Z,47.40
2023-03-27T07:24:52.401Z,47.50
2023-03-27T07:25:52.382Z,47.59
2023-03-27T07:26:52.382Z,48.40
2023-03-27T07:27:52.355Z,46.20
2023-03-27T07:28:52.363Z,45.40
2023-03-27T07:29:54.340Z,48.70
2023-03-27T07:30:52.317Z,48.09
2023-03-27T07:31:57.026Z,50.00
2023-03-27T07:32:54.385Z,49.20
2023-03-27T07:33:52.415Z,42.90
2023-03-27T07:34:52.276Z,42.00
2023-03-27T07:35:52.308Z,42.09
2023-03-27T07:36:52.251Z,45.59
2023-03-27T07:37:52.231Z,48.00
2023-03-27T07:38:52.223Z,49.20
2023-03-27T07:39:52.207Z,48.90
2023-03-27T07:40:52.201Z,47.50
2023-03-27T07:41:52.189Z,47.29
2023-03-27T07:42:52.181Z,46.70
2023-03-27T07:43:52.178Z,46.20
2023-03-27T07:44:52.162Z,45.79
2023-03-27T07:45:52.157Z,42.79
2023-03-27T07:46:52.193Z,48.29
2023-03-27T07:47:52.173Z,41.40
2023-03-27T07:48:52.094Z,44.09
2023-03-27T07:49:52.085Z,40.90
2023-03-27T07:50:54.406Z,43.20
2023-03-27T07:51:52.065Z,42.79
2023-03-27T07:52:52.045Z,35.70
2023-03-27T07:53:52.025Z,35.20
2023-03-27T07:54:52.015Z,37.00
2023-03-27T07:55:52.003Z,40.70
2023-03-27T07:56:52.110Z,48.79
2023-03-27T07:58:00.868Z,44.40
2023-03-27T07:58:53.963Z,47.29
2023-03-27T07:59:51.956Z,35.79
2023-03-27T08:00:51.937Z,37.40
2023-03-27T08:01:51.931Z,37.09
2023-03-27T08:02:51.997Z,32.40
2023-03-27T08:03:52.027Z,35.59
2023-03-27T08:04:51.985Z,35.20
2023-03-27T08:05:51.871Z,42.20
2023-03-27T08:06:51.872Z,34.09
2023-03-27T08:07:51.845Z,42.90
2023-03-27T08:08:51.847Z,59.40
2023-03-27T08:09:51.819Z,49.00
2023-03-27T08:10:51.807Z,41.90
2023-03-27T08:11:51.790Z,47.00
2023-03-27T08:12:51.783Z,44.90
2023-03-27T08:13:51.766Z,49.40
2023-03-27T08:14:51.754Z,49.50
2023-03-27T08:15:51.762Z,41.59
2023-03-27T08:16:52.134Z,42.40
2023-03-27T08:17:51.735Z,41.09
2023-03-27T08:18:51.706Z,46.70
2023-03-27T08:19:51.710Z,51.90
2023-03-27T08:20:51.676Z,51.29
2023-03-27T08:21:51.663Z,48.59
2023-03-27T08:22:51.683Z,41.79
2023-03-27T08:23:51.637Z,40.09
2023-03-27T08:24:51.625Z,57.90
2023-03-27T08:25:51.613Z,45.20
2023-03-27T08:27:51.582Z,53.40
2023-03-27T08:28:51.571Z,43.50
2023-03-27T08:29:51.559Z,57.90
2023-03-27T08:30:51.582Z,56.79
2023-03-27T08:31:51.536Z,48.40
2023-03-27T08:32:51.526Z,43.79
2023-03-27T08:33:51.509Z,45.09
2023-03-27T08:34:51.498Z,57.50
2023-03-27T08:35:51.568Z,55.20
2023-03-27T08:36:51.473Z,53.29
2023-03-27T08:37:51.455Z,63.50
2023-03-27T08:38:51.462Z,67.59
2023-03-27T08:39:51.433Z,66.59
2023-03-27T08:40:51.421Z,58.00
2023-03-27T08:41:51.410Z,57.00
2023-03-27T08:42:51.391Z,46.00
2023-03-27T08:43:51.377Z,49.90
2023-03-27T08:44:51.365Z,55.70
2023-03-27T08:45:51.352Z,51.50
2023-03-27T08:46:51.436Z,59.50
2023-03-27T08:47:51.390Z,56.09
2023-03-27T08:48:51.315Z,59.20
2023-03-27T08:49:51.300Z,58.70
2023-03-27T08:50:51.297Z,50.40
2023-03-27T08:51:51.294Z,55.09
2023-03-27T08:52:51.263Z,55.70
2023-03-27T08:53:51.246Z,55.29
2023-03-27T08:54:51.234Z,53.00
2023-03-27T08:55:51.223Z,57.79
2023-03-27T08:56:51.302Z,54.50
2023-03-27T08:57:51.214Z,47.59
2023-03-27T08:58:51.198Z,47.79
2023-03-27T08:59:51.178Z,52.90
2023-03-27T09:00:51.158Z,53.20
2023-03-27T09:01:51.219Z,50.09
2023-03-27T09:02:51.230Z,54.50
2023-03-27T09:03:51.254Z,49.20
2023-03-27T09:04:51.105Z,48.00
2023-03-27T09:05:51.092Z,49.59
2023-03-27T09:06:51.084Z,67.40
2023-03-27T09:07:51.090Z,52.40
2023-03-27T09:08:51.059Z,50.40
2023-03-27T09:09:51.042Z,51.59
2023-03-27T09:10:51.029Z,51.70
2023-03-27T09:11:51.033Z,51.20
2023-03-27T09:12:51.004Z,51.50
2023-03-27T09:13:51.001Z,52.79
2023-03-27T09:14:50.980Z,54.40
2023-03-27T09:15:50.995Z,54.29
2023-03-27T09:16:50.951Z,53.09
2023-03-27T09:17:50.948Z,51.59
2023-03-27T09:18:50.934Z,73.90
2023-03-27T09:19:50.912Z,54.00
2023-03-27T09:20:50.947Z,63.79
2023-03-27T09:21:50.890Z,56.09
2023-03-27T09:22:50.874Z,51.00
2023-03-27T09:23:50.881Z,52.09
2023-03-27T09:24:50.845Z,49.29
2023-03-27T09:25:50.838Z,73.09
2023-03-27T09:27:04.569Z,70.19
2023-03-27T09:27:52.806Z,53.20
2023-03-27T09:28:50.838Z,55.00
2023-03-27T09:29:50.779Z,52.70
2023-03-27T09:30:50.771Z,60.20
2023-03-27T09:31:50.784Z,70.69
2023-03-27T09:32:50.782Z,64.19
2023-03-27T09:33:50.732Z,60.70
2023-03-27T09:34:50.720Z,57.79
2023-03-27T09:35:50.747Z,52.29
2023-03-27T09:36:50.688Z,52.29
2023-03-27T09:37:50.680Z,48.90
2023-03-27T09:38:50.765Z,47.29
2023-03-27T09:39:50.683Z,49.59
2023-03-27T09:40:50.638Z,50.59
2023-03-27T09:41:50.642Z,52.90
2023-03-27T09:42:50.620Z,68.19
2023-03-27T09:43:50.607Z,49.50
2023-03-27T09:44:50.607Z,45.50
2023-03-27T09:45:50.582Z,46.70
2023-03-27T09:46:50.583Z,47.00
2023-03-27T09:47:50.616Z,52.79
2023-03-27T09:48:50.644Z,49.90
2023-03-27T09:49:50.529Z,51.20
2023-03-27T09:50:50.543Z,53.40
2023-03-27T09:51:50.511Z,51.79
2023-03-27T09:52:50.489Z,49.79
2023-03-27T09:53:50.500Z,58.20
2023-03-27T09:54:50.466Z,53.59
2023-03-27T09:55:50.545Z,56.70
2023-03-27T09:56:50.484Z,66.90
2023-03-27T09:57:50.427Z,64.40
2023-03-27T09:58:50.412Z,68.90
2023-03-27T09:59:50.402Z,64.40
2023-03-27T10:00:50.443Z,67.90
2023-03-27T10:01:50.383Z,75.40
2023-03-27T10:02:50.419Z,74.30
2023-03-27T10:03:50.403Z,62.29
2023-03-27T10:04:50.337Z,62.79
2023-03-27T10:05:50.324Z,59.59
2023-03-27T10:06:50.320Z,62.00
2023-03-27T10:08:50.292Z,49.40
2023-03-27T10:09:50.277Z,51.00
2023-03-27T10:10:50.259Z,56.40
2023-03-27T10:11:50.318Z,60.70
2023-03-27T10:12:50.235Z,53.50
2023-03-27T10:13:50.231Z,51.40
2023-03-27T10:14:52.430Z,46.09
2023-03-27T10:15:50.199Z,49.20
2023-03-27T10:16:50.215Z,45.40
2023-03-27T10:17:50.204Z,44.20
2023-03-27T10:18:50.163Z,52.50
2023-03-27T10:19:50.149Z,50.00
2023-03-27T10:20:50.132Z,56.29
2023-03-27T10:21:50.148Z,56.70
2023-03-27T10:22:50.673Z,61.40
2023-03-27T10:23:50.114Z,55.79
2023-03-27T10:24:50.079Z,55.00
2023-03-27T10:25:50.090Z,60.79
2023-03-27T10:26:50.055Z,58.79
2023-03-27T10:27:50.076Z,62.20
2023-03-27T10:28:50.037Z,60.20
2023-03-27T10:29:50.017Z,57.90
2023-03-27T10:30:50.005Z,51.50
2023-03-27T10:31:50.034Z,38.09
2023-03-27T10:32:50.055Z,35.29
2023-03-27T10:33:49.964Z,49.00
2023-03-27T10:34:49.950Z,47.00
2023-03-27T10:35:49.959Z,47.70
2023-03-27T10:36:49.923Z,50.79
2023-03-27T10:37:51.088Z,58.29
2023-03-27T10:38:49.896Z,61.70
2023-03-27T10:39:49.887Z,56.79
2023-03-27T10:40:49.878Z,52.09
2023-03-27T10:41:49.865Z,52.79
2023-03-27T10:42:49.850Z,57.59
2023-03-27T10:43:49.863Z,44.79
2023-03-27T10:44:49.832Z,45.20
2023-03-27T10:45:49.869Z,44.20
2023-03-27T10:46:49.794Z,42.09
2023-03-27T10:47:49.834Z,44.09
2023-03-27T10:48:49.790Z,48.29
2023-03-27T10:49:49.767Z,47.79
2023-03-27T10:50:49.771Z,45.79
2023-03-27T10:51:49.730Z,54.09
2023-03-27T10:52:49.764Z,54.90
2023-03-27T10:53:49.754Z,62.09
2023-03-27T10:54:49.692Z,55.40
2023-03-27T10:55:49.679Z,56.90
2023-03-27T10:56:49.693Z,67.30
2023-03-27T10:57:49.654Z,45.50
2023-03-27T10:58:49.636Z,44.50
2023-03-27T10:59:49.654Z,44.40
2023-03-27T11:00:49.624Z,47.70
2023-03-27T11:01:49.679Z,46.09
2023-03-27T11:02:49.628Z,46.50
2023-03-27T11:03:49.669Z,47.09
2023-03-27T11:04:49.582Z,45.79
2023-03-27T11:05:49.544Z,46.29
2023-03-27T11:06:49.537Z,48.90
2023-03-27T11:07:49.522Z,48.20
2023-03-27T11:08:49.512Z,47.20
2023-03-27T11:09:49.500Z,46.90
2023-03-27T11:10:49.542Z,48.00
2023-03-27T11:11:49.472Z,50.09
2023-03-27T11:12:49.463Z,50.70
2023-03-27T11:13:49.450Z,52.20
2023-03-27T11:14:49.431Z,50.09
2023-03-27T11:15:49.452Z,52.29
2023-03-27T11:16:49.469Z,52.00
2023-03-27T11:17:49.441Z,51.59
2023-03-27T11:18:49.379Z,49.70
2023-03-27T11:19:49.385Z,49.20
2023-03-27T11:20:49.353Z,55.59
2023-03-27T11:21:49.343Z,49.90
2023-03-27T11:22:49.329Z,53.40
2023-03-27T11:23:49.334Z,54.20
2023-03-27T11:24:49.302Z,49.20
2023-03-27T11:25:49.297Z,49.59
2023-03-27T11:26:49.287Z,50.50
2023-03-27T11:27:49.267Z,46.90
2023-03-27T11:28:49.252Z,52.20
2023-03-27T11:29:49.247Z,51.29
2023-03-27T11:30:49.263Z,59.50
2023-03-27T11:31:49.299Z,52.79
2023-03-27T11:32:49.253Z,52.50
2023-03-27T11:33:49.195Z,52.40
2023-03-27T11:34:49.190Z,50.79
2023-03-27T11:35:49.206Z,50.09
2023-03-27T11:36:49.167Z,50.40
2023-03-27T11:37:49.149Z,49.00
2023-03-27T11:38:49.130Z,53.40
2023-03-27T11:39:49.119Z,52.29
2023-03-27T11:40:49.105Z,48.90
2023-03-27T11:41:49.093Z,45.00
2023-03-27T11:42:49.082Z,59.50
2023-03-27T11:43:49.084Z,70.19
2023-03-27T11:44:49.061Z,54.20
2023-03-27T11:45:49.043Z,49.79
2023-03-27T11:46:49.037Z,59.29
2023-03-27T11:47:49.109Z,60.79
2023-03-27T11:48:49.004Z,62.70
2023-03-27T11:49:48.994Z,52.59
2023-03-27T11:50:48.978Z,49.59
2023-03-27T11:51:48.982Z,46.50
2023-03-27T11:52:48.956Z,39.90
2023-03-27T11:53:48.944Z,41.40
2023-03-27T11:54:48.931Z,43.59
2023-03-27T11:55:48.933Z,46.50
2023-03-27T11:56:48.906Z,54.20
2023-03-27T11:57:48.897Z,49.00
2023-03-27T11:58:48.887Z,41.09
2023-03-27T11:59:48.859Z,44.40
2023-03-27T12:00:48.855Z,43.40
2023-03-27T12:01:48.914Z,50.79
2023-03-27T12:02:49.128Z,47.79
2023-03-27T12:03:49.021Z,41.00
2023-03-27T12:04:48.800Z,38.40
2023-03-27T12:05:48.796Z,42.20
2023-03-27T12:06:48.789Z,47.09
2023-03-27T12:07:48.759Z,52.20
2023-03-27T12:08:48.747Z,38.20
2023-03-27T12:09:48.748Z,37.70
2023-03-27T12:10:48.722Z,42.59
2023-03-27T12:11:48.728Z,39.20
2023-03-27T12:12:48.703Z,41.59
2023-03-27T12:13:58.115Z,44.00
2023-03-27T12:14:50.672Z,39.09
2023-03-27T12:15:48.659Z,41.20
2023-03-27T12:16:48.660Z,41.29
2023-03-27T12:17:48.696Z,49.00
2023-03-27T12:19:01.966Z,40.70
2023-03-27T12:19:48.630Z,43.40
2023-03-27T12:20:53.269Z,28.29
2023-03-27T12:21:48.587Z,31.00
2023-03-27T12:22:48.566Z,33.70
2023-03-27T12:23:48.555Z,36.70
2023-03-27T12:24:59.016Z,38.79
2023-03-27T12:25:48.547Z,39.50
2023-03-27T12:26:48.515Z,39.20
2023-03-27T12:27:48.507Z,40.70
2023-03-27T12:28:48.503Z,39.20
2023-03-27T12:29:48.480Z,34.59
2023-03-27T12:30:48.463Z,35.79
2023-03-27T12:31:48.507Z,39.20
2023-03-27T12:32:48.476Z,36.79
2023-03-27T12:33:48.423Z,38.79
2023-03-27T12:34:48.413Z,38.20
2023-03-27T12:35:48.470Z,39.90
2023-03-27T12:36:48.380Z,38.00
2023-03-27T12:37:48.369Z,39.20
2023-03-27T12:38:48.360Z,37.50
2023-03-27T12:39:48.347Z,33.00
2023-03-27T12:40:48.331Z,37.90
2023-03-27T12:41:48.336Z,33.70
2023-03-27T12:42:48.317Z,32.29
2023-03-27T12:43:48.295Z,36.20
2023-03-27T12:44:48.296Z,34.50
2023-03-27T12:45:53.428Z,37.90
2023-03-27T12:46:48.297Z,39.59
2023-03-27T12:47:48.271Z,42.90
2023-03-27T12:48:48.234Z,41.79
2023-03-27T12:49:48.643Z,45.50
2023-03-27T12:50:48.216Z,41.40
2023-03-27T12:51:48.223Z,47.50
2023-03-27T12:52:48.179Z,38.50
2023-03-27T12:53:48.167Z,29.39
2023-03-27T12:54:48.167Z,29.39
2023-03-27T12:55:48.141Z,27.29
2023-03-27T12:56:48.185Z,28.10
2023-03-27T12:57:48.229Z,33.20
2023-03-27T12:58:48.137Z,25.00
2023-03-27T12:59:48.088Z,22.20
2023-03-27T13:00:48.072Z,26.00
2023-03-27T13:01:52.407Z,32.59
2023-03-27T13:02:48.114Z,33.59
2023-03-27T13:03:48.088Z,23.89
2023-03-27T13:04:48.024Z,23.60
2023-03-27T13:05:48.015Z,18.70
2023-03-27T13:06:48.002Z,21.29